Lady Lola — ZCGQ7 — position and weather

sailwx.info

Track history (hours):
 
Tides and Currents Weather Stations Pressure Air Temp Water Temp Dewpoint Dewpoint Depression Visibility Wind Speed Wind Dir Waves Ship Positions

Lady Lola

Last reported at 2014-Oct-07 11:31 UTC. Time now 2014-Oct-31 20:06 UTC.
Position N 37°26' W 000°46'.
Warning: this ship's position is 24 days out of date.

Length 62 m; draft 3.6 m.

Type: Pleasure craft. MMSI: 319713000.

Date/timePositionNaut miles runAvg speedWind from/ knotsBaromVisibWave heightAir tempDewpointWater temp
2014-Oct-07 11:31N 37°26' W 000°46'1313.6
2014-Oct-07 10:32N 37°34' W 000°33'14912.1
2014-Oct-06 22:13N 39°16' E 001°45'812.3
2014-Oct-06 21:33N 39°19' E 001°55'1212.4
2014-Oct-06 20:33N 39°22' E 002°10'1312.6
2014-Oct-06 19:33N 39°25' E 002°26'1212.3
2014-Oct-06 18:33N 39°32' E 002°39'1 1.2
2014-Oct-06 17:33N 39°33' E 002°39'0 0.0
2014-Oct-06 16:33N 39°33' E 002°39'0 0.0
2014-Oct-06 15:33N 39°33' E 002°39'0 0.0
2014-Oct-06 14:33N 39°33' E 002°39'0 0.0
2014-Oct-06 13:33N 39°33' E 002°39'0 0.0
2014-Oct-06 12:33N 39°33' E 002°39'0 0.0
2014-Oct-06 11:33N 39°33' E 002°39'0 0.0
2014-Oct-06 10:33N 39°33' E 002°39'9 9.2
2014-Oct-06 09:33N 39°25' E 002°43'1212.4
2014-Oct-06 08:33N 39°17' E 002°56'1111.5
2014-Oct-06 07:33N 39°17' E 003°11'1312.7
2014-Oct-06 06:33N 39°22' E 003°25'1312.7
2014-Oct-06 05:32N 39°28' E 003°40'  
Track history (hours):
 
Tides and Currents Weather Stations Pressure Air Temp Water Temp Dewpoint Dewpoint Depression Visibility Wind Speed Wind Dir Waves Ship Positions

Lady Lola

Last reported at 2014-Oct-07 11:31 UTC. Time now 2014-Oct-31 20:06 UTC.
Position N 37°26' W 000°46'.
Warning: this ship's position is 24 days out of date.

Length 62 m; draft 3.6 m.

Type: Pleasure craft. MMSI: 319713000.

Date/timePositionNaut miles runAvg speedWind from/ knotsBaromVisibWave heightAir tempDewpointWater temp
2014-Oct-07 11:31N 37°26' W 000°46'1313.6
2014-Oct-07 10:32N 37°34' W 000°33'14912.1
2014-Oct-06 22:13N 39°16' E 001°45'812.3
2014-Oct-06 21:33N 39°19' E 001°55'1212.4
2014-Oct-06 20:33N 39°22' E 002°10'1312.6
2014-Oct-06 19:33N 39°25' E 002°26'1212.3
2014-Oct-06 18:33N 39°32' E 002°39'1 1.2
2014-Oct-06 17:33N 39°33' E 002°39'0 0.0
2014-Oct-06 16:33N 39°33' E 002°39'0 0.0
2014-Oct-06 15:33N 39°33' E 002°39'0 0.0
2014-Oct-06 14:33N 39°33' E 002°39'0 0.0
2014-Oct-06 13:33N 39°33' E 002°39'0 0.0
2014-Oct-06 12:33N 39°33' E 002°39'0 0.0
2014-Oct-06 11:33N 39°33' E 002°39'0 0.0
2014-Oct-06 10:33N 39°33' E 002°39'9 9.2
2014-Oct-06 09:33N 39°25' E 002°43'1212.4
2014-Oct-06 08:33N 39°17' E 002°56'1111.5
2014-Oct-06 07:33N 39°17' E 003°11'1312.7
2014-Oct-06 06:33N 39°22' E 003°25'1312.7
2014-Oct-06 05:32N 39°28' E 003°40'  

Dump ship's entire track history